sensor_id;sensor_type;location;lat;lon;timestamp;pressure;altitude;pressure_sealevel;temperature;humidity
32237;BME280;18726;44.732;10.550;2022-11-20T00:01:06;100398.72;;;11.93;100.00
32237;BME280;18726;44.732;10.550;2022-11-20T00:04:10;100395.03;;;11.62;100.00
32237;BME280;18726;44.732;10.550;2022-11-20T00:07:14;100402.28;;;11.35;100.00
32237;BME280;18726;44.732;10.550;2022-11-20T00:10:17;100404.00;;;11.43;100.00
32237;BME280;18726;44.732;10.550;2022-11-20T00:13:20;100402.72;;;11.18;100.00
32237;BME280;18726;44.732;10.550;2022-11-20T00:16:24;100406.91;;;11.35;100.00
32237;BME280;18726;44.732;10.550;2022-11-20T00:19:28;100409.72;;;11.19;100.00
32237;BME280;18726;44.732;10.550;2022-11-20T00:22:31;100400.41;;;11.20;100.00
32237;BME280;18726;44.732;10.550;2022-11-20T00:25:35;100405.81;;;11.01;100.00
32237;BME280;18726;44.732;10.550;2022-11-20T00:28:38;100421.31;;;11.16;100.00
32237;BME280;18726;44.732;10.550;2022-11-20T00:31:42;100421.03;;;11.40;100.00
32237;BME280;18726;44.732;10.550;2022-11-20T00:34:46;100419.09;;;11.41;100.00
32237;BME280;18726;44.732;10.550;2022-11-20T00:37:49;100419.38;;;11.36;100.00
32237;BME280;18726;44.732;10.550;2022-11-20T00:40:57;100423.25;;;11.35;100.00
32237;BME280;18726;44.732;10.550;2022-11-20T00:44:01;100425.88;;;11.31;100.00
32237;BME280;18726;44.732;10.550;2022-11-20T00:47:04;100425.13;;;11.50;100.00
32237;BME280;18726;44.732;10.550;2022-11-20T00:50:07;100436.19;;;11.61;100.00
32237;BME280;18726;44.732;10.550;2022-11-20T00:53:11;100435.31;;;11.57;100.00
32237;BME280;18726;44.732;10.550;2022-11-20T00:56:15;100427.97;;;11.76;100.00
32237;BME280;18726;44.732;10.550;2022-11-20T00:59:19;100429.03;;;11.91;100.00
32237;BME280;18726;44.732;10.550;2022-11-20T01:02:22;100438.25;;;11.87;100.00
32237;BME280;18726;44.732;10.550;2022-11-20T01:05:26;100433.44;;;11.76;100.00
32237;BME280;18726;44.732;10.550;2022-11-20T01:08:30;100425.59;;;11.17;100.00
32237;BME280;18726;44.732;10.550;2022-11-20T01:11:36;100431.56;;;10.88;100.00
32237;BME280;18726;44.732;10.550;2022-11-20T01:14:39;100419.66;;;10.76;100.00
32237;BME280;18726;44.732;10.550;2022-11-20T01:17:43;100417.59;;;10.54;100.00
32237;BME280;18726;44.732;10.550;2022-11-20T01:20:46;100420.19;;;11.01;100.00
32237;BME280;18726;44.732;10.550;2022-11-20T01:23:49;100419.88;;;11.22;100.00
32237;BME280;18726;44.732;10.550;2022-11-20T01:26:54;100426.06;;;10.68;100.00
32237;BME280;18726;44.732;10.550;2022-11-20T01:29:57;100427.81;;;10.76;100.00
32237;BME280;18726;44.732;10.550;2022-11-20T01:33:00;100430.69;;;10.83;100.00
32237;BME280;18726;44.732;10.550;2022-11-20T01:36:04;100440.94;;;11.25;100.00
32237;BME280;18726;44.732;10.550;2022-11-20T01:39:17;100439.13;;;11.33;100.00
32237;BME280;18726;44.732;10.550;2022-11-20T01:42:21;100434.13;;;11.00;100.00
32237;BME280;18726;44.732;10.550;2022-11-20T01:49:02;100446.38;;;11.25;100.00
32237;BME280;18726;44.732;10.550;2022-11-20T01:52:17;100448.66;;;11.23;100.00
32237;BME280;18726;44.732;10.550;2022-11-20T01:55:24;100453.16;;;11.00;100.00
32237;BME280;18726;44.732;10.550;2022-11-20T01:58:30;100448.41;;;10.77;100.00
32237;BME280;18726;44.732;10.550;2022-11-20T02:01:35;100449.09;;;10.74;100.00
32237;BME280;18726;44.732;10.550;2022-11-20T02:04:38;100446.63;;;10.06;100.00
32237;BME280;18726;44.732;10.550;2022-11-20T02:07:41;100450.81;;;9.60;100.00
32237;BME280;18726;44.732;10.550;2022-11-20T02:10:45;100457.78;;;9.33;100.00
32237;BME280;18726;44.732;10.550;2022-11-20T02:13:48;100446.53;;;9.19;100.00
32237;BME280;18726;44.732;10.550;2022-11-20T02:16:52;100444.28;;;9.21;100.00
32237;BME280;18726;44.732;10.550;2022-11-20T02:19:57;100445.88;;;9.22;100.00
32237;BME280;18726;44.732;10.550;2022-11-20T02:23:03;100456.25;;;9.20;100.00
32237;BME280;18726;44.732;10.550;2022-11-20T02:26:09;100449.00;;;9.24;100.00
32237;BME280;18726;44.732;10.550;2022-11-20T02:29:15;100443.34;;;9.29;100.00
32237;BME280;18726;44.732;10.550;2022-11-20T02:38:29;100450.22;;;9.39;100.00
32237;BME280;18726;44.732;10.550;2022-11-20T02:41:34;100450.09;;;9.35;100.00
32237;BME280;18726;44.732;10.550;2022-11-20T02:44:38;100454.72;;;9.75;100.00
32237;BME280;18726;44.732;10.550;2022-11-20T02:47:41;100454.19;;;9.85;100.00
32237;BME280;18726;44.732;10.550;2022-11-20T02:50:44;100451.16;;;9.59;100.00
32237;BME280;18726;44.732;10.550;2022-11-20T02:53:48;100447.94;;;9.69;100.00
32237;BME280;18726;44.732;10.550;2022-11-20T02:56:51;100441.06;;;9.71;100.00
32237;BME280;18726;44.732;10.550;2022-11-20T02:59:55;100443.13;;;9.62;100.00
32237;BME280;18726;44.732;10.550;2022-11-20T03:02:58;100440.16;;;9.39;100.00
32237;BME280;18726;44.732;10.550;2022-11-20T03:06:02;100434.84;;;9.43;100.00
32237;BME280;18726;44.732;10.550;2022-11-20T03:09:06;100439.16;;;9.32;100.00
32237;BME280;18726;44.732;10.550;2022-11-20T03:12:09;100440.09;;;9.24;100.00
32237;BME280;18726;44.732;10.550;2022-11-20T03:15:12;100444.97;;;9.18;100.00
32237;BME280;18726;44.732;10.550;2022-11-20T03:18:15;100438.88;;;9.21;100.00
32237;BME280;18726;44.732;10.550;2022-11-20T03:21:19;100444.19;;;9.18;100.00
32237;BME280;18726;44.732;10.550;2022-11-20T03:24:22;100440.69;;;9.05;100.00
32237;BME280;18726;44.732;10.550;2022-11-20T03:27:26;100445.66;;;9.03;100.00
32237;BME280;18726;44.732;10.550;2022-11-20T03:30:29;100450.63;;;9.13;100.00
32237;BME280;18726;44.732;10.550;2022-11-20T03:33:32;100461.16;;;9.42;100.00
32237;BME280;18726;44.732;10.550;2022-11-20T03:36:39;100458.44;;;9.42;100.00
32237;BME280;18726;44.732;10.550;2022-11-20T03:39:43;100463.97;;;9.46;100.00
32237;BME280;18726;44.732;10.550;2022-11-20T03:42:46;100465.50;;;9.19;100.00
32237;BME280;18726;44.732;10.550;2022-11-20T03:45:49;100465.75;;;9.02;100.00
32237;BME280;18726;44.732;10.550;2022-11-20T03:48:53;100474.56;;;8.99;100.00
32237;BME280;18726;44.732;10.550;2022-11-20T03:51:56;100470.41;;;9.41;100.00
32237;BME280;18726;44.732;10.550;2022-11-20T03:54:59;100474.03;;;9.33;100.00
32237;BME280;18726;44.732;10.550;2022-11-20T03:58:03;100472.00;;;8.90;100.00
32237;BME280;18726;44.732;10.550;2022-11-20T04:01:17;100476.03;;;8.72;100.00
32237;BME280;18726;44.732;10.550;2022-11-20T04:04:21;100471.66;;;8.79;100.00
32237;BME280;18726;44.732;10.550;2022-11-20T04:07:24;100469.44;;;9.62;100.00
32237;BME280;18726;44.732;10.550;2022-11-20T04:10:28;100473.13;;;10.25;100.00
32237;BME280;18726;44.732;10.550;2022-11-20T04:13:31;100477.31;;;10.23;100.00
32237;BME280;18726;44.732;10.550;2022-11-20T04:16:35;100483.16;;;10.09;100.00
32237;BME280;18726;44.732;10.550;2022-11-20T04:19:38;100481.06;;;9.90;100.00
32237;BME280;18726;44.732;10.550;2022-11-20T04:22:42;100491.53;;;10.04;100.00
32237;BME280;18726;44.732;10.550;2022-11-20T04:25:45;100490.25;;;9.86;100.00
32237;BME280;18726;44.732;10.550;2022-11-20T04:28:48;100493.81;;;9.74;100.00
32237;BME280;18726;44.732;10.550;2022-11-20T04:31:52;100495.09;;;9.92;100.00
32237;BME280;18726;44.732;10.550;2022-11-20T04:34:56;100499.50;;;10.12;100.00
32237;BME280;18726;44.732;10.550;2022-11-20T04:37:59;100500.13;;;10.34;100.00
32237;BME280;18726;44.732;10.550;2022-11-20T04:41:03;100496.41;;;10.42;100.00
32237;BME280;18726;44.732;10.550;2022-11-20T04:44:07;100494.94;;;9.45;100.00
32237;BME280;18726;44.732;10.550;2022-11-20T04:47:10;100489.59;;;8.60;100.00
32237;BME280;18726;44.732;10.550;2022-11-20T04:50:13;100495.00;;;8.14;100.00
32237;BME280;18726;44.732;10.550;2022-11-20T04:53:17;100493.88;;;7.83;100.00
32237;BME280;18726;44.732;10.550;2022-11-20T04:56:21;100494.56;;;7.59;100.00
32237;BME280;18726;44.732;10.550;2022-11-20T04:59:24;100491.59;;;7.52;100.00
32237;BME280;18726;44.732;10.550;2022-11-20T05:02:27;100502.22;;;8.23;100.00
32237;BME280;18726;44.732;10.550;2022-11-20T05:05:31;100503.91;;;8.97;100.00
32237;BME280;18726;44.732;10.550;2022-11-20T05:08:34;100514.97;;;9.04;100.00
32237;BME280;18726;44.732;10.550;2022-11-20T05:11:37;100522.16;;;9.36;100.00
32237;BME280;18726;44.732;10.550;2022-11-20T05:14:40;100515.38;;;9.30;100.00
32237;BME280;18726;44.732;10.550;2022-11-20T05:17:48;100525.13;;;9.07;100.00
32237;BME280;18726;44.732;10.550;2022-11-20T05:20:58;100518.13;;;8.82;100.00
32237;BME280;18726;44.732;10.550;2022-11-20T05:24:01;100519.59;;;8.22;100.00
32237;BME280;18726;44.732;10.550;2022-11-20T05:27:05;100517.63;;;7.77;100.00
32237;BME280;18726;44.732;10.550;2022-11-20T05:30:09;100526.19;;;8.00;100.00
32237;BME280;18726;44.732;10.550;2022-11-20T05:33:12;100528.84;;;9.02;100.00
32237;BME280;18726;44.732;10.550;2022-11-20T05:36:15;100529.09;;;9.62;100.00
32237;BME280;18726;44.732;10.550;2022-11-20T05:39:19;100539.44;;;9.44;100.00
32237;BME280;18726;44.732;10.550;2022-11-20T05:42:22;100540.00;;;9.37;100.00
32237;BME280;18726;44.732;10.550;2022-11-20T05:45:35;100546.75;;;9.56;100.00
32237;BME280;18726;44.732;10.550;2022-11-20T05:48:39;100542.63;;;9.74;100.00
32237;BME280;18726;44.732;10.550;2022-11-20T05:51:43;100551.28;;;9.52;100.00
32237;BME280;18726;44.732;10.550;2022-11-20T05:54:46;100554.59;;;8.84;100.00
32237;BME280;18726;44.732;10.550;2022-11-20T05:57:49;100558.19;;;8.64;100.00
32237;BME280;18726;44.732;10.550;2022-11-20T06:00:53;100567.00;;;9.09;100.00
32237;BME280;18726;44.732;10.550;2022-11-20T06:03:56;100573.56;;;9.21;100.00
32237;BME280;18726;44.732;10.550;2022-11-20T06:06:59;100568.47;;;9.07;100.00
32237;BME280;18726;44.732;10.550;2022-11-20T06:10:03;100571.63;;;8.85;100.00
32237;BME280;18726;44.732;10.550;2022-11-20T06:13:06;100575.47;;;9.32;100.00
32237;BME280;18726;44.732;10.550;2022-11-20T06:16:10;100576.72;;;7.87;100.00
32237;BME280;18726;44.732;10.550;2022-11-20T06:19:14;100575.19;;;7.27;100.00
32237;BME280;18726;44.732;10.550;2022-11-20T06:22:18;100576.88;;;7.11;100.00
32237;BME280;18726;44.732;10.550;2022-11-20T06:25:21;100577.38;;;7.63;100.00
32237;BME280;18726;44.732;10.550;2022-11-20T06:28:24;100589.81;;;8.84;100.00
32237;BME280;18726;44.732;10.550;2022-11-20T06:31:28;100590.38;;;9.38;100.00
32237;BME280;18726;44.732;10.550;2022-11-20T06:34:32;100596.34;;;8.95;100.00
32237;BME280;18726;44.732;10.550;2022-11-20T06:37:35;100596.25;;;7.93;100.00
32237;BME280;18726;44.732;10.550;2022-11-20T06:40:42;100600.00;;;8.54;100.00
32237;BME280;18726;44.732;10.550;2022-11-20T06:43:45;100607.34;;;9.23;100.00
32237;BME280;18726;44.732;10.550;2022-11-20T06:46:49;100614.72;;;8.65;100.00
32237;BME280;18726;44.732;10.550;2022-11-20T06:49:52;100607.84;;;8.35;100.00
32237;BME280;18726;44.732;10.550;2022-11-20T06:52:55;100621.28;;;8.76;100.00
32237;BME280;18726;44.732;10.550;2022-11-20T06:55:58;100618.34;;;9.79;100.00
32237;BME280;18726;44.732;10.550;2022-11-20T06:59:05;100622.22;;;11.05;100.00
32237;BME280;18726;44.732;10.550;2022-11-20T07:02:10;100631.00;;;11.81;100.00
32237;BME280;18726;44.732;10.550;2022-11-20T07:05:14;100635.63;;;12.15;100.00
32237;BME280;18726;44.732;10.550;2022-11-20T07:08:17;100635.22;;;12.33;100.00
32237;BME280;18726;44.732;10.550;2022-11-20T07:11:21;100642.22;;;12.53;100.00
32237;BME280;18726;44.732;10.550;2022-11-20T07:14:24;100649.63;;;13.67;100.00
32237;BME280;18726;44.732;10.550;2022-11-20T07:17:28;100662.09;;;14.91;100.00
32237;BME280;18726;44.732;10.550;2022-11-20T07:20:32;100672.75;;;16.02;100.00
32237;BME280;18726;44.732;10.550;2022-11-20T07:23:35;100680.16;;;16.88;100.00
32237;BME280;18726;44.732;10.550;2022-11-20T07:26:38;100677.06;;;17.65;100.00
32237;BME280;18726;44.732;10.550;2022-11-20T07:29:41;100680.00;;;18.45;100.00
32237;BME280;18726;44.732;10.550;2022-11-20T07:32:51;100693.13;;;18.93;100.00
32237;BME280;18726;44.732;10.550;2022-11-20T07:35:55;100695.91;;;19.44;100.00
32237;BME280;18726;44.732;10.550;2022-11-20T07:38:58;100707.69;;;19.52;85.56
32237;BME280;18726;44.732;10.550;2022-11-20T07:42:01;100703.09;;;19.83;100.00
32237;BME280;18726;44.732;10.550;2022-11-20T07:45:05;100709.44;;;20.17;97.95
32237;BME280;18726;44.732;10.550;2022-11-20T07:48:09;100706.59;;;20.59;94.69
32237;BME280;18726;44.732;10.550;2022-11-20T07:51:12;100730.34;;;20.79;74.65
32237;BME280;18726;44.732;10.550;2022-11-20T07:54:16;100730.59;;;21.19;83.16
32237;BME280;18726;44.732;10.550;2022-11-20T07:57:20;100731.78;;;21.18;82.80
32237;BME280;18726;44.732;10.550;2022-11-20T08:00:23;100730.44;;;21.03;89.26
32237;BME280;18726;44.732;10.550;2022-11-20T08:03:27;100741.53;;;19.97;80.15
32237;BME280;18726;44.732;10.550;2022-11-20T08:06:30;100734.97;;;18.66;86.10
32237;BME280;18726;44.732;10.550;2022-11-20T08:09:33;100734.91;;;18.77;100.00
32237;BME280;18726;44.732;10.550;2022-11-20T08:12:45;100734.78;;;20.43;85.09
32237;BME280;18726;44.732;10.550;2022-11-20T08:16:07;100744.03;;;21.94;74.73
32237;BME280;18726;44.732;10.550;2022-11-20T08:19:11;100753.75;;;22.85;66.88
32237;BME280;18726;44.732;10.550;2022-11-20T08:22:15;100765.88;;;24.25;57.61
32237;BME280;18726;44.732;10.550;2022-11-20T08:25:19;100765.34;;;24.71;55.20
32237;BME280;18726;44.732;10.550;2022-11-20T08:28:22;100765.88;;;24.53;60.92
32237;BME280;18726;44.732;10.550;2022-11-20T08:31:26;100761.63;;;25.16;54.96
32237;BME280;18726;44.732;10.550;2022-11-20T08:34:30;100762.03;;;25.90;55.28
32237;BME280;18726;44.732;10.550;2022-11-20T08:37:33;100764.00;;;26.24;52.91
32237;BME280;18726;44.732;10.550;2022-11-20T08:40:36;100774.69;;;27.13;51.49
32237;BME280;18726;44.732;10.550;2022-11-20T08:43:40;100775.00;;;26.94;48.16
32237;BME280;18726;44.732;10.550;2022-11-20T08:46:43;100782.38;;;27.40;48.06
32237;BME280;18726;44.732;10.550;2022-11-20T08:49:48;100777.06;;;27.73;47.21
32237;BME280;18726;44.732;10.550;2022-11-20T08:52:51;100783.63;;;28.43;44.08
32237;BME280;18726;44.732;10.550;2022-11-20T08:55:56;100786.56;;;27.94;44.17
32237;BME280;18726;44.732;10.550;2022-11-20T08:58:59;100789.63;;;27.78;43.74
32237;BME280;18726;44.732;10.550;2022-11-20T09:02:02;100787.16;;;27.31;42.51
32237;BME280;18726;44.732;10.550;2022-11-20T09:05:06;100772.13;;;27.96;49.63
32237;BME280;18726;44.732;10.550;2022-11-20T09:08:10;100783.38;;;29.02;42.01
32237;BME280;18726;44.732;10.550;2022-11-20T09:11:13;100782.47;;;29.71;37.79
32237;BME280;18726;44.732;10.550;2022-11-20T09:14:16;100778.28;;;30.67;40.23
32237;BME280;18726;44.732;10.550;2022-11-20T09:17:20;100781.03;;;31.76;37.90
32237;BME280;18726;44.732;10.550;2022-11-20T09:20:23;100786.50;;;32.05;36.39
32237;BME280;18726;44.732;10.550;2022-11-20T09:23:30;100781.94;;;32.28;35.27
32237;BME280;18726;44.732;10.550;2022-11-20T09:26:34;100788.91;;;32.84;34.12
32237;BME280;18726;44.732;10.550;2022-11-20T09:29:37;100790.63;;;33.82;35.08
32237;BME280;18726;44.732;10.550;2022-11-20T09:32:41;100791.69;;;33.90;33.89
32237;BME280;18726;44.732;10.550;2022-11-20T09:35:44;100786.97;;;34.41;33.14
32237;BME280;18726;44.732;10.550;2022-11-20T09:38:48;100766.22;;;34.44;32.68
32237;BME280;18726;44.732;10.550;2022-11-20T09:48:08;100771.94;;;34.89;33.35
32237;BME280;18726;44.732;10.550;2022-11-20T09:54:40;100763.13;;;36.11;30.87
32237;BME280;18726;44.732;10.550;2022-11-20T09:57:44;100757.66;;;35.67;30.85
32237;BME280;18726;44.732;10.550;2022-11-20T10:00:49;100753.22;;;35.88;30.79
32237;BME280;18726;44.732;10.550;2022-11-20T10:07:20;100752.88;;;35.39;30.23
32237;BME280;18726;44.732;10.550;2022-11-20T10:10:42;100755.94;;;34.41;30.60
32237;BME280;18726;44.732;10.550;2022-11-20T10:13:54;100757.50;;;35.42;32.42
32237;BME280;18726;44.732;10.550;2022-11-20T10:17:02;100748.75;;;35.40;30.20
32237;BME280;18726;44.732;10.550;2022-11-20T10:30:03;100735.72;;;34.76;33.62
32237;BME280;18726;44.732;10.550;2022-11-20T10:33:19;100732.56;;;34.24;34.41
32237;BME280;18726;44.732;10.550;2022-11-20T10:36:28;100729.53;;;33.19;34.79
32237;BME280;18726;44.732;10.550;2022-11-20T10:39:40;100712.75;;;31.90;36.80
32237;BME280;18726;44.732;10.550;2022-11-20T10:42:45;100703.91;;;30.42;41.02
32237;BME280;18726;44.732;10.550;2022-11-20T10:48:56;100702.91;;;28.36;46.79
32237;BME280;18726;44.732;10.550;2022-11-20T10:55:42;100691.84;;;27.50;51.20
32237;BME280;18726;44.732;10.550;2022-11-20T11:01:52;100684.56;;;26.33;55.16
32237;BME280;18726;44.732;10.550;2022-11-20T11:04:55;100675.06;;;25.65;52.23
32237;BME280;18726;44.732;10.550;2022-11-20T11:07:59;100675.06;;;25.65;58.69
32237;BME280;18726;44.732;10.550;2022-11-20T11:11:07;100666.75;;;25.27;61.50
32237;BME280;18726;44.732;10.550;2022-11-20T11:14:17;100668.31;;;24.89;63.68
32237;BME280;18726;44.732;10.550;2022-11-20T11:20:25;100671.66;;;23.88;69.67
32237;BME280;18726;44.732;10.550;2022-11-20T11:23:36;100663.78;;;23.87;72.90
32237;BME280;18726;44.732;10.550;2022-11-20T11:26:50;100659.47;;;21.93;64.66
32237;BME280;18726;44.732;10.550;2022-11-20T11:30:03;100657.81;;;21.06;82.55
32237;BME280;18726;44.732;10.550;2022-11-20T11:33:27;100651.97;;;21.00;94.68
32237;BME280;18726;44.732;10.550;2022-11-20T11:36:31;100656.75;;;20.96;78.47
32237;BME280;18726;44.732;10.550;2022-11-20T11:39:36;100650.94;;;21.41;93.90
32237;BME280;18726;44.732;10.550;2022-11-20T11:42:44;100649.63;;;21.69;85.36
32237;BME280;18726;44.732;10.550;2022-11-20T11:45:53;100646.50;;;21.90;90.48
32237;BME280;18726;44.732;10.550;2022-11-20T11:49:01;100641.06;;;22.06;93.13
32237;BME280;18726;44.732;10.550;2022-11-20T11:52:14;100642.13;;;20.99;83.72
32237;BME280;18726;44.732;10.550;2022-11-20T11:55:39;100631.78;;;21.30;93.73
32237;BME280;18726;44.732;10.550;2022-11-20T11:58:46;100636.69;;;21.42;87.26
32237;BME280;18726;44.732;10.550;2022-11-20T12:01:54;100632.97;;;21.29;91.70
32237;BME280;18726;44.732;10.550;2022-11-20T12:05:03;100627.16;;;20.97;81.70
32237;BME280;18726;44.732;10.550;2022-11-20T12:11:29;100632.91;;;19.46;100.00
32237;BME280;18726;44.732;10.550;2022-11-20T12:14:37;100618.38;;;19.46;100.00
32237;BME280;18726;44.732;10.550;2022-11-20T12:17:42;100623.91;;;19.83;100.00
32237;BME280;18726;44.732;10.550;2022-11-20T12:31:34;100605.44;;;20.14;100.00
32237;BME280;18726;44.732;10.550;2022-11-20T12:40:36;100601.31;;;19.62;100.00
32237;BME280;18726;44.732;10.550;2022-11-20T12:43:52;100607.25;;;19.12;100.00
32237;BME280;18726;44.732;10.550;2022-11-20T12:47:24;100602.91;;;18.59;100.00
32237;BME280;18726;44.732;10.550;2022-11-20T13:00:15;100604.88;;;19.14;100.00
32237;BME280;18726;44.732;10.550;2022-11-20T13:06:29;100601.44;;;18.44;100.00
32237;BME280;18726;44.732;10.550;2022-11-20T13:09:32;100591.75;;;18.18;100.00
32237;BME280;18726;44.732;10.550;2022-11-20T13:12:40;100585.19;;;17.87;100.00
32237;BME280;18726;44.732;10.550;2022-11-20T13:18:51;100578.97;;;16.59;100.00
32237;BME280;18726;44.732;10.550;2022-11-20T13:21:54;100572.69;;;16.51;100.00
32237;BME280;18726;44.732;10.550;2022-11-20T13:24:57;100562.56;;;16.98;100.00
32237;BME280;18726;44.732;10.550;2022-11-20T13:28:03;100559.38;;;17.38;100.00
32237;BME280;18726;44.732;10.550;2022-11-20T13:31:22;100563.28;;;17.44;100.00
32237;BME280;18726;44.732;10.550;2022-11-20T13:34:29;100557.00;;;17.47;100.00
32237;BME280;18726;44.732;10.550;2022-11-20T13:37:34;100559.34;;;17.56;100.00
32237;BME280;18726;44.732;10.550;2022-11-20T13:40:39;100544.44;;;17.61;100.00
32237;BME280;18726;44.732;10.550;2022-11-20T13:43:53;100547.56;;;17.70;100.00
32237;BME280;18726;44.732;10.550;2022-11-20T13:46:57;100549.91;;;17.68;100.00
32237;BME280;18726;44.732;10.550;2022-11-20T13:50:03;100547.53;;;17.77;100.00
32237;BME280;18726;44.732;10.550;2022-11-20T14:00:09;100553.00;;;17.87;100.00
32237;BME280;18726;44.732;10.550;2022-11-20T14:03:23;100553.81;;;17.74;100.00
32237;BME280;18726;44.732;10.550;2022-11-20T14:06:31;100558.56;;;17.48;100.00
32237;BME280;18726;44.732;10.550;2022-11-20T14:09:35;100559.38;;;17.38;100.00
32237;BME280;18726;44.732;10.550;2022-11-20T14:12:38;100559.81;;;17.19;100.00
32237;BME280;18726;44.732;10.550;2022-11-20T14:15:41;100549.22;;;16.85;100.00
32237;BME280;18726;44.732;10.550;2022-11-20T14:18:46;100556.25;;;16.58;100.00
32237;BME280;18726;44.732;10.550;2022-11-20T14:21:51;100546.03;;;16.34;100.00
32237;BME280;18726;44.732;10.550;2022-11-20T14:25:06;100542.09;;;16.28;100.00
32237;BME280;18726;44.732;10.550;2022-11-20T14:28:10;100547.03;;;15.83;100.00
32237;BME280;18726;44.732;10.550;2022-11-20T14:31:18;100539.50;;;15.59;100.00
32237;BME280;18726;44.732;10.550;2022-11-20T14:34:24;100537.03;;;15.46;100.00
32237;BME280;18726;44.732;10.550;2022-11-20T14:37:29;100542.06;;;15.37;100.00
32237;BME280;18726;44.732;10.550;2022-11-20T14:40:35;100532.97;;;15.19;100.00
32237;BME280;18726;44.732;10.550;2022-11-20T14:43:38;100537.91;;;14.99;100.00
32237;BME280;18726;44.732;10.550;2022-11-20T14:46:43;100538.97;;;14.84;100.00
32237;BME280;18726;44.732;10.550;2022-11-20T14:49:46;100548.25;;;14.72;100.00
32237;BME280;18726;44.732;10.550;2022-11-20T14:52:57;100540.72;;;14.62;100.00
32237;BME280;18726;44.732;10.550;2022-11-20T14:56:01;100532.16;;;14.64;100.00
32237;BME280;18726;44.732;10.550;2022-11-20T14:59:05;100535.75;;;14.71;100.00
32237;BME280;18726;44.732;10.550;2022-11-20T15:02:09;100535.56;;;14.53;100.00
32237;BME280;18726;44.732;10.550;2022-11-20T15:05:13;100535.53;;;14.50;100.00
32237;BME280;18726;44.732;10.550;2022-11-20T15:08:17;100545.06;;;14.30;100.00
32237;BME280;18726;44.732;10.550;2022-11-20T15:11:24;100552.53;;;14.33;100.00
32237;BME280;18726;44.732;10.550;2022-11-20T15:14:29;100538.47;;;14.34;100.00
32237;BME280;18726;44.732;10.550;2022-11-20T15:17:33;100543.00;;;14.19;100.00
32237;BME280;18726;44.732;10.550;2022-11-20T15:20:39;100536.66;;;14.08;100.00
32237;BME280;18726;44.732;10.550;2022-11-20T15:23:44;100539.53;;;13.89;100.00
32237;BME280;18726;44.732;10.550;2022-11-20T15:26:47;100539.47;;;13.82;100.00
32237;BME280;18726;44.732;10.550;2022-11-20T15:29:50;100535.91;;;14.11;100.00
32237;BME280;18726;44.732;10.550;2022-11-20T15:32:54;100522.41;;;14.29;100.00
32237;BME280;18726;44.732;10.550;2022-11-20T15:35:57;100534.75;;;14.12;100.00
32237;BME280;18726;44.732;10.550;2022-11-20T15:39:01;100539.28;;;14.01;100.00
32237;BME280;18726;44.732;10.550;2022-11-20T15:42:05;100538.28;;;14.16;100.00
32237;BME280;18726;44.732;10.550;2022-11-20T15:45:09;100538.72;;;14.22;100.00
32237;BME280;18726;44.732;10.550;2022-11-20T15:48:20;100536.78;;;14.23;100.00
32237;BME280;18726;44.732;10.550;2022-11-20T15:51:34;100540.34;;;14.27;100.00
32237;BME280;18726;44.732;10.550;2022-11-20T15:54:37;100540.22;;;14.16;100.00
32237;BME280;18726;44.732;10.550;2022-11-20T15:57:41;100546.88;;;14.18;100.00
32237;BME280;18726;44.732;10.550;2022-11-20T16:00:44;100539.53;;;14.23;100.00
32237;BME280;18726;44.732;10.550;2022-11-20T16:03:48;100547.72;;;14.23;100.00
32237;BME280;18726;44.732;10.550;2022-11-20T16:06:52;100554.28;;;14.18;100.00
32237;BME280;18726;44.732;10.550;2022-11-20T16:09:55;100547.31;;;14.20;100.00
32237;BME280;18726;44.732;10.550;2022-11-20T16:12:59;100555.44;;;14.13;100.00
32237;BME280;18726;44.732;10.550;2022-11-20T16:19:28;100567.66;;;13.93;100.00
32237;BME280;18726;44.732;10.550;2022-11-20T16:22:32;100574.06;;;13.74;100.00
32237;BME280;18726;44.732;10.550;2022-11-20T16:25:35;100574.22;;;13.55;100.00
32237;BME280;18726;44.732;10.550;2022-11-20T16:28:39;100574.03;;;13.44;100.00
32237;BME280;18726;44.732;10.550;2022-11-20T16:31:42;100568.59;;;13.44;100.00
32237;BME280;18726;44.732;10.550;2022-11-20T16:34:45;100570.03;;;13.65;100.00
32237;BME280;18726;44.732;10.550;2022-11-20T16:37:49;100567.50;;;13.49;100.00
32237;BME280;18726;44.732;10.550;2022-11-20T16:40:52;100572.91;;;13.45;100.00
32237;BME280;18726;44.732;10.550;2022-11-20T16:43:56;100572.41;;;13.40;100.00
32237;BME280;18726;44.732;10.550;2022-11-20T16:47:00;100566.28;;;13.20;100.00
32237;BME280;18726;44.732;10.550;2022-11-20T16:50:04;100560.94;;;13.27;100.00
32237;BME280;18726;44.732;10.550;2022-11-20T16:53:07;100565.88;;;13.18;100.00
32237;BME280;18726;44.732;10.550;2022-11-20T16:56:11;100561.06;;;13.11;100.00
32237;BME280;18726;44.732;10.550;2022-11-20T16:59:15;100572.16;;;13.22;100.00
32237;BME280;18726;44.732;10.550;2022-11-20T17:02:18;100570.69;;;13.28;100.00
32237;BME280;18726;44.732;10.550;2022-11-20T17:05:22;100578.34;;;13.19;100.00
32237;BME280;18726;44.732;10.550;2022-11-20T17:08:27;100569.75;;;13.17;100.00
32237;BME280;18726;44.732;10.550;2022-11-20T17:11:32;100574.53;;;12.55;100.00
32237;BME280;18726;44.732;10.550;2022-11-20T17:14:35;100575.56;;;11.89;100.00
32237;BME280;18726;44.732;10.550;2022-11-20T17:17:39;100577.34;;;11.46;100.00
32237;BME280;18726;44.732;10.550;2022-11-20T17:20:45;100570.75;;;10.97;100.00